createdAt,value
2017-04-14T00:00:11.944Z,84.94
2017-04-14T00:00:52.469Z,84.75
2017-04-14T00:01:33.007Z,85.04
2017-04-14T00:02:13.528Z,85.04
2017-04-14T00:02:54.180Z,84.75
2017-04-14T00:03:34.799Z,84.85
2017-04-14T00:04:15.286Z,84.85
2017-04-14T00:04:55.923Z,85.04
2017-04-14T00:05:36.566Z,84.75
2017-04-14T00:06:17.127Z,84.94
2017-04-14T00:07:02.289Z,84.56
2017-04-14T00:07:42.941Z,85.04
2017-04-14T00:08:23.593Z,85.08
2017-04-14T00:09:04.266Z,85.13
2017-04-14T00:09:44.882Z,84.85
2017-04-14T00:10:25.425Z,84.8
2017-04-14T00:11:05.977Z,85.04
2017-04-14T00:11:46.533Z,85.04
2017-04-14T00:12:27.062Z,85.17
2017-04-14T00:13:07.628Z,85.61
2017-04-14T00:13:48.182Z,85.61
2017-04-14T00:14:28.723Z,85.51
2017-04-14T00:15:09.304Z,85.51
2017-04-14T00:15:49.815Z,85.23
2017-04-14T00:16:30.380Z,85.23
2017-04-14T00:17:10.928Z,85.42
2017-04-14T00:17:51.522Z,85.51
2017-04-14T00:18:33.094Z,85.23
2017-04-14T00:19:13.659Z,85.23
2017-04-14T00:19:55.734Z,85.23
2017-04-14T00:20:36.400Z,85.42
2017-04-14T00:21:16.989Z,85.42
2017-04-14T00:21:57.604Z,85.42
2017-04-14T00:22:39.232Z,85.42
2017-04-14T00:23:19.939Z,85.46
2017-04-14T00:24:00.534Z,85.32
2017-04-14T00:24:41.104Z,85.42
2017-04-14T00:25:21.807Z,85.13
2017-04-14T00:26:02.390Z,85.61
2017-04-14T00:26:43.068Z,85.8
2017-04-14T00:27:24.634Z,85.7
2017-04-14T00:28:05.295Z,85.51
2017-04-14T00:28:46.855Z,85.51
2017-04-14T00:29:27.485Z,85.61
2017-04-14T00:30:09.045Z,85.51
2017-04-14T00:30:50.697Z,85.99
2017-04-14T00:31:31.305Z,86.18
2017-04-14T00:32:11.844Z,86.18
2017-04-14T00:32:52.412Z,86.27
2017-04-14T00:33:32.972Z,86.08
2017-04-14T00:34:13.601Z,86.27
2017-04-14T00:34:55.287Z,86.18
2017-04-14T00:35:36.979Z,86.08
2017-04-14T00:36:17.586Z,85.99
2017-04-14T00:36:58.186Z,85.89
2017-04-14T00:37:38.935Z,85.99
2017-04-14T00:38:19.514Z,85.99
2017-04-14T00:39:00.176Z,85.99
2017-04-14T00:39:40.693Z,85.89
2017-04-14T00:40:21.344Z,85.61
2017-04-14T00:41:02.037Z,85.8
2017-04-14T00:41:42.550Z,85.8
2017-04-14T00:42:23.175Z,86.08
2017-04-14T00:43:03.686Z,86.18
2017-04-14T00:43:44.250Z,86.18
2017-04-14T00:44:24.817Z,86.18
2017-04-14T00:45:05.346Z,86.27
2017-04-14T00:45:45.852Z,85.89
2017-04-14T00:46:26.525Z,85.99
2017-04-14T00:47:07.148Z,85.99
2017-04-14T00:47:47.720Z,85.89
2017-04-14T00:48:28.257Z,85.99
2017-04-14T00:49:08.859Z,85.99
2017-04-14T00:49:49.522Z,86.08
2017-04-14T00:50:30.072Z,86.18
2017-04-14T00:51:10.588Z,86.18
2017-04-14T00:51:51.116Z,85.8
2017-04-14T00:52:31.696Z,86.46
2017-04-14T00:53:13.303Z,86.74
2017-04-14T00:53:53.825Z,86.46
2017-04-14T00:54:34.432Z,86.65
2017-04-14T00:55:15.028Z,86.65
2017-04-14T00:55:55.615Z,86.55
2017-04-14T00:56:36.168Z,86.36
2017-04-14T00:57:16.724Z,86.36
2017-04-14T00:57:57.292Z,86.27
2017-04-14T00:58:37.841Z,86.36
2017-04-14T00:59:18.435Z,86.46
2017-04-14T00:59:59.025Z,86.55
2017-04-14T01:00:39.581Z,86.46
2017-04-14T01:01:20.186Z,86.55
2017-04-14T01:02:01.871Z,86.55
2017-04-14T01:02:43.504Z,86.46
2017-04-14T01:03:24.095Z,86.65
2017-04-14T01:04:04.616Z,86.74
2017-04-14T01:04:51.705Z,86.36
2017-04-14T01:05:32.201Z,86.36
2017-04-14T01:06:12.796Z,86.36
2017-04-14T01:06:53.386Z,86.46
2017-04-14T01:07:33.978Z,86.65
2017-04-14T01:08:14.537Z,86.55
2017-04-14T01:08:57.154Z,86.46
2017-04-14T01:09:37.739Z,86.46
2017-04-14T01:10:18.368Z,86.36
2017-04-14T01:10:58.889Z,86.27
2017-04-14T01:11:39.485Z,86.27
2017-04-14T01:12:20.043Z,86.36
2017-04-14T01:13:00.645Z,86.36
2017-04-14T01:13:41.147Z,86.55
2017-04-14T01:14:21.744Z,86.27
2017-04-14T01:15:02.334Z,86.55
2017-04-14T01:15:42.942Z,86.83
2017-04-14T01:16:23.457Z,86.83
2017-04-14T01:17:04.069Z,86.36
2017-04-14T01:17:44.621Z,87.31
2017-04-14T01:18:25.188Z,87.02
2017-04-14T01:19:05.814Z,87.02
2017-04-14T01:19:46.360Z,87.02
2017-04-14T01:20:26.909Z,87.21
2017-04-14T01:21:07.458Z,87.02
2017-04-14T01:21:48.058Z,87.02
2017-04-14T03:05:48.559Z,87.93
2017-04-14T03:06:29.153Z,87.93
2017-04-14T03:07:09.663Z,87.93
2017-04-14T03:07:50.282Z,88.02
2017-04-14T03:08:30.784Z,87.74
2017-04-14T03:09:11.351Z,87.74
2017-04-14T03:09:51.871Z,87.84
2017-04-14T03:10:32.482Z,87.84
2017-04-14T03:11:13.010Z,88.12
2017-04-14T03:11:55.608Z,88.02
2017-04-14T03:12:36.189Z,88.31
2017-04-14T03:13:16.807Z,88.02
2017-04-14T03:13:57.359Z,88.02
2017-04-14T03:14:37.961Z,88.02
2017-04-14T03:15:18.560Z,87.84
2017-04-14T03:15:59.090Z,88.21
2017-04-14T03:16:39.595Z,87.93
2017-04-14T03:17:20.774Z,87.93
2017-04-14T03:18:01.378Z,88.12
2017-04-14T03:18:42.950Z,88.21
2017-04-14T03:19:28.261Z,88.12
2017-04-14T03:20:08.860Z,88.21
2017-04-14T03:20:49.348Z,87.93
2017-04-14T03:21:29.904Z,87.98
2017-04-14T03:22:10.416Z,88.17
2017-04-14T03:22:50.966Z,88.21
2017-04-14T03:23:31.554Z,88.17
2017-04-14T03:24:12.061Z,88.17
2017-04-14T03:24:52.591Z,88.02
2017-04-14T03:25:33.171Z,88.07
2017-04-14T03:26:14.796Z,87.98
2017-04-14T03:26:55.391Z,87.98
2017-04-14T03:27:35.938Z,88.17
2017-04-14T03:28:16.485Z,88.07
2017-04-14T03:28:57.016Z,87.79
2017-04-14T03:29:37.589Z,87.7
2017-04-14T03:30:18.099Z,87.88
2017-04-14T03:30:58.711Z,87.79
2017-04-14T03:31:39.253Z,87.98
2017-04-14T03:32:20.820Z,87.98
2017-04-14T03:33:01.351Z,87.98
2017-04-14T03:33:41.939Z,88.26
2017-04-14T03:34:22.531Z,88.26
2017-04-14T03:35:03.143Z,88.36
2017-04-14T03:35:43.705Z,88.74
2017-04-14T03:36:24.312Z,88.93
2017-04-14T03:37:05.902Z,88.74
2017-04-14T03:37:46.427Z,88.74
2017-04-14T03:38:27.000Z,88.74
2017-04-14T03:39:07.520Z,88.74
2017-04-14T03:39:48.113Z,88.55
2017-04-14T03:40:29.676Z,88.74
2017-04-14T03:41:10.198Z,88.74
2017-04-14T03:41:50.710Z,88.55
2017-04-14T03:42:31.363Z,88.74
2017-04-14T03:43:11.989Z,88.55
2017-04-14T03:43:52.493Z,88.64
2017-04-14T03:44:34.129Z,88.64
2017-04-14T03:45:14.725Z,88.64
2017-04-14T03:45:56.337Z,88.45
2017-04-14T03:46:36.847Z,88.83
2017-04-14T03:47:18.474Z,88.83
2017-04-14T03:47:59.066Z,88.83
2017-04-14T03:48:39.663Z,88.83
2017-04-14T03:49:20.179Z,88.83
2017-04-14T03:50:00.780Z,88.74
2017-04-14T03:50:41.371Z,88.74
2017-04-14T03:51:21.963Z,88.64
2017-04-14T03:52:02.472Z,88.74
2017-04-14T03:52:44.034Z,88.64
2017-04-14T03:53:25.633Z,89.02
2017-04-14T03:54:06.208Z,88.74
2017-04-14T03:54:46.726Z,88.74
2017-04-14T03:55:28.282Z,88.74
2017-04-14T03:56:09.871Z,89.02
2017-04-14T03:56:50.456Z,89.02
2017-04-14T03:57:30.981Z,88.93
2017-04-14T03:58:11.591Z,88.83
2017-04-14T03:58:52.172Z,88.83
2017-04-14T03:59:32.765Z,89.12
2017-04-14T04:00:13.301Z,89.12
2017-04-14T04:00:53.888Z,89.02
2017-04-14T04:01:34.481Z,88.97
2017-04-14T04:02:15.072Z,88.93
2017-04-14T04:02:55.588Z,88.93
2017-04-14T04:03:36.206Z,88.83
2017-04-14T04:04:16.790Z,88.83
2017-04-14T04:04:57.375Z,88.93
2017-04-14T04:05:37.890Z,89.12
2017-04-14T04:06:18.502Z,88.93
2017-04-14T04:06:59.093Z,88.83
2017-04-14T04:07:40.701Z,88.93
2017-04-14T04:08:21.220Z,88.93
2017-04-14T04:09:01.805Z,89.02
2017-04-14T04:09:42.419Z,88.93
2017-04-14T04:10:23.026Z,88.83
2017-04-14T04:11:03.546Z,88.93
2017-04-14T04:11:44.140Z,89.12
2017-04-14T04:12:24.778Z,88.93
2017-04-14T04:13:05.322Z,88.93
2017-04-14T04:13:47.909Z,89.02
2017-04-14T04:14:28.487Z,89.02
2017-04-14T04:15:09.036Z,89.02
2017-04-14T04:15:49.580Z,89.12
2017-04-14T04:16:31.155Z,89.02
2017-04-14T04:17:12.776Z,89.12
2017-04-14T04:17:53.372Z,88.74
2017-04-14T04:18:33.881Z,89.21
2017-04-14T04:19:14.483Z,88.83
2017-04-14T04:19:55.081Z,88.93
2017-04-14T04:20:35.679Z,88.93
2017-04-14T04:21:16.188Z,89.31
2017-04-14T04:22:01.512Z,89.5
2017-04-14T04:22:42.082Z,89.31
2017-04-14T04:23:22.700Z,89.5
2017-04-14T04:24:03.269Z,89.31
2017-04-14T04:24:43.830Z,89.12
2017-04-14T04:25:25.391Z,89.21
2017-04-14T04:26:05.947Z,89.21
2017-04-14T04:26:46.495Z,89.21
2017-04-14T04:27:31.960Z,89.21
2017-04-14T04:28:13.518Z,89.12
2017-04-14T04:28:56.129Z,89.12
2017-04-14T04:29:36.665Z,89.12
2017-04-14T04:30:17.236Z,89.12
2017-04-14T04:30:58.790Z,89.21
2017-04-14T04:31:39.353Z,89.59
2017-04-14T04:32:19.933Z,89.59
2017-04-14T04:33:00.527Z,89.69
2017-04-14T04:33:41.056Z,89.69
2017-04-14T04:34:21.653Z,89.78
2017-04-14T04:35:02.240Z,89.59
2017-04-14T04:35:42.843Z,89.59
2017-04-14T04:36:23.348Z,89.5
2017-04-14T04:37:05.909Z,89.59
2017-04-14T04:37:47.525Z,89.4
2017-04-14T04:38:28.126Z,89.4
2017-04-14T04:39:08.632Z,89.4
2017-04-14T04:39:49.225Z,89.78
2017-04-14T04:40:29.821Z,89.5
2017-04-14T04:41:10.418Z,89.59
2017-04-14T04:41:50.931Z,89.69
2017-04-14T04:42:31.541Z,89.5
2017-04-14T04:43:13.118Z,89.31
2017-04-14T04:43:53.634Z,89.31
2017-04-14T04:44:34.218Z,89.4
2017-04-14T04:45:14.747Z,89.59
2017-04-14T04:45:55.262Z,89.59
2017-04-14T04:46:36.891Z,89.4
2017-04-14T04:47:19.495Z,89.4
2017-04-14T04:47:59.990Z,89.59
2017-04-14T04:48:40.613Z,89.31
2017-04-14T04:49:21.184Z,89.59
2017-04-14T04:50:01.793Z,89.12
2017-04-14T04:50:42.287Z,89.59
2017-04-14T04:51:22.895Z,89.59
2017-04-14T04:52:03.518Z,89.59
2017-04-14T04:52:44.148Z,89.69
2017-04-14T04:53:25.698Z,89.69
2017-04-14T04:54:06.276Z,89.69
2017-04-14T04:54:46.809Z,89.69
2017-04-14T04:55:27.366Z,89.78
2017-04-14T04:56:07.931Z,89.69
2017-04-14T04:56:50.505Z,89.78
2017-04-14T04:57:31.107Z,89.78
2017-04-14T04:58:11.608Z,89.78
2017-04-14T04:58:52.231Z,89.69
2017-04-14T04:59:32.821Z,89.5
2017-04-14T05:00:15.462Z,89.4
2017-04-14T05:00:55.973Z,89.4
2017-04-14T05:01:36.568Z,89.5
2017-04-14T05:02:17.168Z,89.87
2017-04-14T05:02:57.771Z,89.5
2017-04-14T05:03:38.279Z,89.97
2017-04-14T05:04:19.905Z,89.78
2017-04-14T05:05:00.503Z,89.78
2017-04-14T05:05:42.121Z,89.5
2017-04-14T05:06:22.661Z,89.5
2017-04-14T05:07:03.256Z,89.97
2017-04-14T05:07:44.841Z,89.97
2017-04-14T05:08:29.966Z,90.06
2017-04-14T05:09:10.526Z,89.4
2017-04-14T05:09:51.064Z,90.2
2017-04-14T05:10:31.611Z,89.97
2017-04-14T05:11:12.292Z,89.82
2017-04-14T05:11:52.819Z,89.69
2017-04-14T05:12:34.417Z,89.54
2017-04-14T05:13:14.981Z,89.5
2017-04-14T05:13:56.539Z,89.54
2017-04-14T05:14:37.078Z,89.63
2017-04-14T05:15:17.634Z,89.54
2017-04-14T05:15:58.190Z,89.63
2017-04-14T05:16:38.735Z,89.63
2017-04-14T05:17:19.290Z,89.63
2017-04-14T05:18:00.869Z,89.73
2017-04-14T05:18:41.413Z,89.54
2017-04-14T05:19:21.949Z,89.54
2017-04-14T05:20:02.501Z,89.54
2017-04-14T05:20:44.090Z,89.63
2017-04-14T05:21:25.663Z,89.63
2017-04-14T05:22:06.212Z,89.44
2017-04-14T05:22:46.857Z,90.39
2017-04-14T05:23:28.261Z,89.63
2017-04-14T05:24:09.914Z,89.63
2017-04-14T05:24:50.585Z,90.2
2017-04-14T05:25:31.242Z,90.2
2017-04-14T05:26:12.893Z,90.2
2017-04-14T05:26:54.572Z,89.54
2017-04-14T05:27:35.241Z,90.3
2017-04-14T05:28:16.811Z,90.2
2017-04-14T05:28:57.465Z,90.2
2017-04-14T05:29:38.101Z,90.3
2017-04-14T05:30:18.770Z,90.48
2017-04-14T05:30:59.395Z,90.3
2017-04-14T05:31:40.062Z,90.48
2017-04-14T05:32:20.689Z,90.48
2017-04-14T05:33:01.285Z,90.11
2017-04-14T05:33:41.923Z,90.11
2017-04-14T05:34:22.549Z,90.01
2017-04-14T05:35:03.139Z,89.92
2017-04-14T05:35:43.801Z,90.11
2017-04-14T05:36:29.221Z,90.3
2017-04-14T05:37:11.827Z,90.3
2017-04-14T05:37:53.491Z,90.3
2017-04-14T05:38:34.146Z,90.2
2017-04-14T05:39:14.816Z,90.2
2017-04-14T05:39:55.456Z,89.44
2017-04-14T05:40:36.102Z,90.3
2017-04-14T05:41:16.756Z,90.01
2017-04-14T05:41:57.279Z,89.63
2017-04-14T05:42:38.903Z,89.63
2017-04-14T05:43:19.596Z,90.01
2017-04-14T05:44:00.296Z,89.63
2017-04-14T05:44:40.810Z,90.34
2017-04-14T05:45:21.432Z,89.54
2017-04-14T05:46:02.139Z,89.44
2017-04-14T05:46:42.848Z,89.68
2017-04-14T05:47:23.494Z,89.44
2017-04-14T05:48:04.059Z,89.58
2017-04-14T05:48:44.703Z,89.68
2017-04-14T05:49:25.347Z,89.77
2017-04-14T05:50:06.017Z,89.68
2017-04-14T05:50:47.685Z,89.68
2017-04-14T05:51:28.442Z,89.49
2017-04-14T05:52:08.949Z,89.96
2017-04-14T05:52:49.668Z,89.58
2017-04-14T07:23:48.881Z,86.39
2017-04-14T07:24:29.575Z,86.39
2017-04-14T07:25:10.317Z,86.3
2017-04-14T07:25:50.805Z,86.39
2017-04-14T07:26:31.310Z,85.86
2017-04-14T07:27:11.941Z,86.05
2017-04-14T07:27:52.504Z,86.34
2017-04-14T07:28:33.022Z,86.24
2017-04-14T07:29:13.535Z,85.77
2017-04-14T07:29:54.075Z,85.58
2017-04-14T07:30:34.624Z,85.68
2017-04-14T07:31:15.253Z,85.49
2017-04-14T07:31:56.725Z,85.68
2017-04-14T07:32:37.074Z,85.77
2017-04-14T07:33:17.689Z,85.2
2017-04-14T07:33:59.308Z,85.01
2017-04-14T07:34:39.823Z,85.2
2017-04-14T07:35:31.215Z,85.01
2017-04-14T13:06:13.489Z,61.13
2017-04-14T13:06:55.242Z,60.93
2017-04-14T13:07:36.862Z,60.64
2017-04-14T13:08:30.232Z,60.93
2017-04-14T14:26:20.856Z,61.86
2017-04-14T14:27:01.467Z,62.05
2017-04-14T14:27:42.050Z,61.96
2017-04-14T14:28:22.573Z,62.15
2017-04-14T14:29:03.838Z,61.76
2017-04-14T14:29:45.053Z,61.76
2017-04-14T14:30:25.779Z,61.76
2017-04-14T14:31:06.311Z,62.05
2017-04-14T14:31:47.729Z,61.86
2017-04-14T14:32:28.582Z,61.89
2017-04-14T14:33:10.403Z,61.76
2017-04-14T14:33:51.057Z,61.38
2017-04-14T14:34:31.580Z,61.32
2017-04-14T14:35:12.190Z,61.51
2017-04-14T14:35:52.807Z,61.6
2017-04-14T14:36:33.397Z,61.6
2017-04-14T14:37:13.944Z,61.7
2017-04-14T14:37:54.563Z,61.6
2017-04-14T14:38:35.092Z,61.6
2017-04-14T14:39:17.521Z,61.41
2017-04-14T14:39:59.141Z,61.22
2017-04-14T14:40:39.731Z,61.41
2017-04-14T14:41:20.236Z,61.04
2017-04-14T14:42:00.856Z,61.13
2017-04-14T14:42:41.456Z,60.94
2017-04-14T14:43:22.036Z,61.32
2017-04-14T14:44:02.588Z,60.75
2017-04-14T14:44:43.143Z,60.97
2017-04-14T14:45:23.690Z,60.84
2017-04-14T14:46:04.245Z,60.58
2017-04-14T14:46:45.847Z,60.68
2017-04-14T14:47:27.210Z,60.39
2017-04-14T14:48:07.961Z,60.58
2017-04-14T14:48:50.393Z,60.3
2017-04-14T14:49:30.791Z,60.49
2017-04-14T14:50:11.448Z,60.3
2017-04-14T14:50:52.002Z,60.3
2017-04-14T14:51:32.550Z,59.92
2017-04-14T14:52:13.202Z,60.21
2017-04-14T14:52:53.749Z,59.92
2017-04-14T14:53:34.252Z,60.02
2017-04-14T14:54:14.873Z,59.82
2017-04-14T14:54:56.461Z,59.73
2017-04-14T14:55:37.080Z,59.92
2017-04-14T14:56:17.615Z,59.73
2017-04-14T14:56:58.199Z,59.73
2017-04-14T14:57:38.918Z,59.85
2017-04-14T14:58:19.488Z,59.85
2017-04-14T14:58:59.996Z,59.95
2017-04-14T14:59:40.616Z,60.04
2017-04-14T15:00:21.192Z,59.95
2017-04-14T15:01:01.796Z,59.76
2017-04-14T15:01:42.344Z,59.76
2017-04-14T15:02:23.936Z,59.82
2017-04-14T15:03:04.519Z,59.82
2017-04-14T15:03:45.122Z,59.73
2017-04-14T15:04:25.626Z,60.02
2017-04-14T15:05:06.217Z,59.82
2017-04-14T15:05:47.824Z,60.02
2017-04-14T15:06:28.479Z,59.82
2017-04-14T15:07:08.994Z,59.73
2017-04-14T15:07:50.578Z,59.82
2017-04-14T15:08:31.175Z,60.08
2017-04-14T15:09:12.727Z,59.92
2017-04-14T15:09:53.275Z,60.55
2017-04-14T15:10:33.828Z,60.17
2017-04-14T15:11:14.447Z,60.36
2017-04-14T15:11:55.031Z,60.65
2017-04-14T15:12:35.593Z,60.46
2017-04-14T15:13:16.237Z,60.46
2017-04-14T15:13:56.868Z,60.55
2017-04-14T15:14:37.421Z,60.75
2017-04-14T15:15:18.073Z,60.46
2017-04-14T15:15:58.648Z,60.55
2017-04-14T15:16:39.272Z,60.55
2017-04-14T15:17:19.822Z,60.65
2017-04-14T15:18:00.371Z,60.55
2017-04-14T15:18:40.947Z,60.62
2017-04-14T15:19:21.601Z,61.1
2017-04-14T15:20:02.136Z,60.81
2017-04-14T15:20:42.689Z,61
2017-04-14T15:21:23.297Z,61.1
2017-04-14T15:22:03.861Z,61.38
2017-04-14T15:22:44.442Z,61.19
2017-04-14T15:23:27.028Z,61.48
2017-04-14T15:24:07.582Z,61.57
2017-04-14T15:24:48.166Z,61.67
2017-04-14T15:25:28.717Z,61.48
2017-04-14T15:26:09.278Z,61.29
2017-04-14T15:26:49.830Z,61.48
2017-04-14T15:27:30.420Z,61.86
2017-04-14T15:28:11.996Z,62.05
2017-04-14T15:28:52.513Z,61.86
2017-04-14T15:29:33.110Z,61.76
2017-04-14T15:30:13.653Z,62.15
2017-04-14T15:30:54.241Z,61.96
2017-04-14T15:31:34.851Z,62.05
2017-04-14T15:32:15.360Z,62.43
2017-04-14T15:32:55.883Z,62.24
2017-04-14T15:33:36.522Z,61.86
2017-04-14T15:34:17.001Z,62.15
2017-04-14T15:34:57.627Z,62.24
2017-04-14T15:35:38.175Z,62.4
2017-04-14T15:36:18.679Z,62.43
2017-04-14T15:36:59.264Z,62.52
2017-04-14T15:37:39.831Z,62.72
2017-04-14T15:38:20.457Z,62.3
2017-04-14T15:39:00.909Z,62.49
2017-04-14T15:39:41.416Z,62.59
2017-04-14T15:40:22.018Z,62.59
2017-04-14T15:41:02.532Z,62.88
2017-04-14T15:41:43.138Z,62.97
2017-04-14T15:42:23.622Z,62.97
2017-04-14T15:43:04.162Z,63.07
2017-04-14T15:43:44.682Z,62.88
2017-04-14T15:44:25.315Z,62.78
2017-04-14T15:45:05.823Z,62.78
2017-04-14T15:45:46.363Z,62.88
2017-04-14T15:46:26.889Z,62.88
2017-04-14T15:47:08.444Z,62.97
2017-04-14T15:47:48.993Z,62.78
2017-04-14T15:48:29.515Z,62.78
2017-04-14T15:49:10.046Z,62.88
2017-04-14T15:49:50.628Z,62.88
2017-04-14T15:50:31.226Z,62.88
2017-04-14T15:51:11.720Z,62.88
2017-04-14T15:51:52.408Z,63.17
2017-04-14T15:52:32.981Z,62.97
2017-04-14T15:53:13.594Z,62.88
2017-04-14T15:53:54.174Z,62.97
2017-04-14T15:54:34.795Z,63.17
2017-04-14T15:55:15.348Z,63.26
2017-04-14T15:55:55.902Z,63.07
2017-04-14T15:56:36.443Z,63.26
2017-04-14T15:57:17.017Z,63.45
2017-04-14T15:57:57.565Z,63.54
2017-04-14T15:58:38.086Z,63.45
2017-04-14T15:59:19.682Z,63.92
2017-04-14T16:00:00.287Z,63.54
2017-04-14T16:00:40.895Z,63.92
2017-04-14T16:01:21.393Z,63.92
2017-04-14T16:02:01.997Z,63.73
2017-04-14T16:02:42.594Z,63.92
2017-04-14T16:03:23.196Z,63.73
2017-04-14T16:04:03.720Z,63.64
2017-04-14T16:04:44.297Z,64.21
2017-04-14T16:05:24.891Z,64.12
2017-04-14T16:06:05.479Z,64.21
2017-04-14T16:06:45.978Z,64.59
2017-04-14T16:07:26.605Z,64.28
2017-04-14T16:08:07.219Z,64.31
2017-04-14T16:08:47.740Z,64.4
2017-04-14T16:09:28.356Z,64.65
2017-04-14T16:10:09.924Z,64.87
2017-04-14T16:10:50.446Z,64.84
2017-04-14T16:11:31.040Z,65.13
2017-04-14T16:12:11.564Z,64.65
2017-04-14T16:12:52.087Z,65.23
2017-04-14T16:13:32.689Z,65.23
2017-04-14T16:14:13.233Z,65.23
2017-04-14T16:14:53.768Z,65.42
2017-04-14T16:15:34.336Z,65.51
2017-04-14T16:16:14.885Z,65.61
2017-04-14T16:16:55.457Z,65.42
2017-04-14T16:17:35.987Z,65.32
2017-04-14T16:18:16.536Z,65.42
2017-04-14T16:18:57.089Z,65.8
2017-04-14T16:19:37.660Z,65.61
2017-04-14T16:20:18.200Z,65.7
2017-04-14T16:20:58.750Z,65.8
2017-04-14T16:21:39.293Z,65.89
2017-04-14T16:22:19.895Z,66.08
2017-04-14T16:23:00.504Z,66.08
2017-04-14T16:23:41.068Z,66.37
2017-04-14T16:24:21.658Z,66.27
2017-04-14T16:25:02.228Z,66.27
2017-04-14T16:25:42.757Z,66.37
2017-04-14T16:26:23.364Z,66.27
2017-04-14T16:27:04.963Z,66.27
2017-04-14T16:27:45.557Z,66.27
2017-04-14T16:28:26.089Z,66.85
2017-04-14T16:29:06.703Z,66.85
2017-04-14T16:29:47.224Z,67.03
2017-04-14T16:30:27.778Z,66.75
2017-04-14T16:31:08.332Z,66.75
2017-04-14T16:31:48.997Z,66.75
2017-04-14T16:32:29.555Z,66.46
2017-04-14T16:33:10.115Z,66.56
2017-04-14T16:33:50.785Z,66.75
2017-04-14T16:34:31.296Z,66.85
2017-04-14T16:35:11.837Z,66.75
2017-04-14T16:35:52.384Z,67.32
2017-04-14T16:36:32.942Z,67.13
2017-04-14T16:37:13.528Z,67.13
2017-04-14T16:37:54.156Z,66.94
2017-04-14T16:38:34.727Z,67.41
2017-04-14T16:39:15.313Z,67.22
2017-04-14T16:39:55.890Z,66.94
2017-04-14T16:40:36.407Z,67.41
2017-04-14T16:41:16.991Z,67.41
2017-04-14T16:41:57.622Z,67.51
2017-04-14T16:42:38.197Z,67.41
2017-04-14T16:43:18.746Z,67.22
2017-04-14T16:43:59.300Z,67.13
2017-04-14T16:44:39.906Z,67.41
2017-04-14T16:45:20.510Z,67.32
2017-04-14T16:46:01.023Z,67.32
2017-04-14T16:46:41.629Z,67.03
2017-04-14T16:47:22.261Z,67.8
2017-04-14T16:48:02.798Z,67.7
2017-04-14T16:48:43.338Z,67.32
2017-04-14T16:49:24.931Z,67.61
2017-04-14T16:50:05.844Z,67.22
2017-04-14T16:50:46.643Z,67.29
2017-04-14T16:51:27.204Z,67.47
2017-04-14T16:52:07.824Z,67.61
2017-04-14T16:52:48.447Z,67.47
2017-04-14T16:53:29.015Z,67.67
2017-04-14T16:54:09.619Z,67.8
2017-04-14T16:54:50.252Z,67.95
2017-04-14T16:55:30.834Z,67.89
2017-04-14T16:56:11.373Z,67.86
2017-04-14T16:56:52.518Z,67.95
2017-04-14T16:57:33.083Z,67.86
2017-04-14T16:58:13.640Z,67.57
2017-04-14T16:58:54.347Z,67.8
2017-04-14T16:59:34.938Z,68.15
2017-04-14T17:00:15.472Z,67.95
2017-04-14T17:00:56.038Z,68.05
2017-04-14T17:01:36.592Z,68.62
2017-04-14T17:02:17.230Z,68.24
2017-04-14T17:02:57.746Z,68.15
2017-04-14T17:03:38.353Z,68.24
2017-04-14T17:04:18.884Z,68.43
2017-04-14T17:05:00.488Z,68.62
2017-04-14T17:05:41.075Z,68.24
2017-04-14T17:06:22.704Z,68.52
2017-04-14T17:07:03.306Z,68.24
2017-04-14T17:07:43.959Z,68.24
2017-04-14T17:08:24.603Z,68.52
2017-04-14T17:09:05.203Z,69.1
2017-04-14T17:09:45.788Z,69
2017-04-14T17:10:26.315Z,68.81
2017-04-14T17:11:06.892Z,68.81
2017-04-14T17:11:47.495Z,68.52
2017-04-14T17:12:28.069Z,68.62
2017-04-14T17:13:08.602Z,69.29
2017-04-14T17:13:49.158Z,69.29
2017-04-14T17:14:29.764Z,69.1
2017-04-14T17:15:10.351Z,69.29
2017-04-14T17:15:50.883Z,69.29
2017-04-14T17:16:31.450Z,69.19
2017-04-14T17:17:12.117Z,69.19
2017-04-14T17:17:52.659Z,69.29
2017-04-14T17:18:33.226Z,68.9
2017-04-14T17:19:13.827Z,69
2017-04-14T17:19:54.407Z,69.29
2017-04-14T17:20:34.932Z,69.19
2017-04-14T17:21:15.513Z,69.19
2017-04-14T17:21:56.131Z,69.19
2017-04-14T17:22:36.723Z,68.81
2017-04-14T17:23:17.261Z,68.9
2017-04-14T17:23:57.833Z,69.38
2017-04-14T17:24:38.385Z,69.19
2017-04-14T17:25:18.996Z,68.81
2017-04-14T17:25:59.586Z,68.9
2017-04-14T17:26:40.144Z,69
2017-04-14T17:27:20.688Z,68.62
2017-04-14T17:28:01.256Z,69.29
2017-04-14T17:28:41.849Z,69.38
2017-04-14T17:29:22.432Z,69.1
2017-04-14T17:30:02.992Z,69.1
2017-04-14T17:30:43.572Z,69
2017-04-14T17:31:24.297Z,69.1
2017-04-14T17:32:04.858Z,69
2017-04-14T17:32:45.395Z,69.19
2017-04-14T17:33:25.949Z,69
2017-04-14T17:34:06.491Z,69.29
2017-04-14T17:34:47.524Z,69.95
2017-04-14T17:35:28.111Z,69.85
2017-04-14T17:36:08.719Z,69.95
2017-04-14T17:36:49.233Z,69.85
2017-04-14T17:37:29.765Z,69.67
2017-04-14T17:38:10.300Z,69.76
2017-04-14T17:38:50.917Z,69.57
2017-04-14T17:39:31.534Z,69.48
2017-04-14T17:40:12.092Z,69.48
2017-04-14T17:40:52.672Z,69.67
2017-04-14T17:41:33.271Z,69.76
2017-04-14T17:42:14.904Z,69.67
2017-04-14T17:42:55.455Z,69.48
2017-04-14T17:43:36.116Z,69.95
2017-04-14T17:44:16.749Z,69.95
2017-04-14T17:44:57.312Z,70.05
2017-04-14T17:45:38.064Z,69.85
2017-04-14T17:46:18.595Z,70.05
2017-04-14T17:46:59.221Z,70.43
2017-04-14T17:47:39.911Z,70.33
2017-04-14T17:48:20.526Z,70.14
2017-04-14T17:49:01.144Z,70.24
2017-04-14T17:49:41.778Z,70.14
2017-04-14T17:50:22.312Z,70.05
2017-04-14T17:51:02.878Z,70.24
2017-04-14T17:51:43.426Z,69.76
2017-04-14T17:52:23.981Z,69.95
2017-04-14T17:53:05.575Z,70.05
2017-04-14T17:53:46.208Z,70.05
2017-04-14T17:54:26.777Z,70.14
2017-04-14T17:55:07.381Z,69.95
2017-04-14T17:55:47.915Z,70.14
2017-04-14T17:56:28.531Z,70.05
2017-04-14T17:57:09.095Z,70.05
2017-04-14T17:57:49.705Z,70.05
2017-04-14T17:58:30.226Z,70.05
2017-04-14T17:59:10.873Z,70.05
2017-04-14T17:59:51.510Z,70.24
2017-04-14T18:00:32.093Z,70.9
2017-04-14T18:01:12.604Z,70.52
2017-04-14T18:01:53.216Z,70.52
2017-04-14T18:02:33.798Z,70.62
2017-04-14T18:03:14.409Z,70.52
2017-04-14T18:03:54.932Z,70.43
2017-04-14T18:04:37.572Z,70.52
2017-04-14T18:05:18.163Z,70.62
2017-04-14T18:05:58.745Z,70.62
2017-04-14T18:06:39.281Z,70.58
2017-04-14T18:07:19.878Z,70.9
2017-04-14T18:08:00.463Z,70.49
2017-04-14T18:08:42.088Z,70.52
2017-04-14T18:09:22.612Z,70.52
2017-04-14T18:10:03.203Z,70.62
2017-04-14T18:10:43.781Z,70.43
2017-04-14T18:11:24.385Z,70.52
2017-04-14T18:12:04.944Z,70.52
2017-04-14T18:12:45.504Z,70.33
2017-04-14T18:13:26.039Z,70.9
2017-04-14T18:14:06.633Z,70.9
2017-04-14T18:14:47.884Z,71
2017-04-14T18:15:29.377Z,70.87
2017-04-14T18:16:10.029Z,70.39
2017-04-14T18:16:50.627Z,70.49
2017-04-14T18:17:31.166Z,71.25
2017-04-14T18:18:11.758Z,70.97
2017-04-14T18:18:52.436Z,71.25
2017-04-14T18:19:33.039Z,71.25
2017-04-14T18:20:13.764Z,71.34
2017-04-14T18:20:54.550Z,71.25
2017-04-14T18:21:35.099Z,71.25
2017-04-14T18:22:15.652Z,71.34
2017-04-14T18:22:56.203Z,71.06
2017-04-14T18:23:36.743Z,71.25
2017-04-14T18:24:18.333Z,71.25
2017-04-14T18:24:58.888Z,71.06
2017-04-14T18:25:39.433Z,71.06
2017-04-14T18:26:19.979Z,71.34
2017-04-14T18:27:00.536Z,71.44
2017-04-14T18:27:41.179Z,71.25
2017-04-14T18:28:21.940Z,71.25
2017-04-14T18:29:02.482Z,71.44
2017-04-14T18:29:43.059Z,71.15
2017-04-14T18:30:23.608Z,71.25
2017-04-14T18:31:04.159Z,71.25
2017-04-14T18:31:44.708Z,71.06
2017-04-14T18:32:25.269Z,71.06
2017-04-14T18:33:05.802Z,71.15
2017-04-14T18:33:46.322Z,71.25
2017-04-14T18:34:26.878Z,71.34
2017-04-14T18:35:07.494Z,71.53
2017-04-14T18:35:48.004Z,71.44
2017-04-14T18:36:28.531Z,71.44
2017-04-14T18:37:09.074Z,71.63
2017-04-14T18:37:49.586Z,71.44
2017-04-14T18:38:30.178Z,71.63
2017-04-14T18:39:10.709Z,71.44
2017-04-14T18:39:51.314Z,71.44
2017-04-14T18:40:32.002Z,71.91
2017-04-14T18:41:12.601Z,71.53
2017-04-14T18:41:53.238Z,72.11
2017-04-14T18:42:33.758Z,72.11
2017-04-14T18:43:14.319Z,71.72
2017-04-14T18:43:54.871Z,71.91
2017-04-14T18:44:35.469Z,72.01
2017-04-14T18:45:16.068Z,71.91
2017-04-14T18:45:56.621Z,71.82
2017-04-14T18:46:38.210Z,71.72
2017-04-14T18:47:18.799Z,71.53
2017-04-14T18:47:59.395Z,72.11